sensor_id;sensor_type;location;lat;lon;timestamp;P1;durP1;ratioP1;P2;durP2;ratioP2
7571;SDS011;3827;49.928;8.548;2023-07-28T00:00:52;3.90;;;3.40;;
7571;SDS011;3827;49.928;8.548;2023-07-28T00:03:19;3.70;;;3.03;;
7571;SDS011;3827;49.928;8.548;2023-07-28T00:05:46;4.13;;;3.13;;
7571;SDS011;3827;49.928;8.548;2023-07-28T00:08:12;3.65;;;3.33;;
7571;SDS011;3827;49.928;8.548;2023-07-28T00:10:39;4.15;;;3.13;;
7571;SDS011;3827;49.928;8.548;2023-07-28T00:13:07;4.20;;;3.20;;
7571;SDS011;3827;49.928;8.548;2023-07-28T00:15:35;3.40;;;3.00;;
7571;SDS011;3827;49.928;8.548;2023-07-28T00:18:02;3.57;;;3.23;;
7571;SDS011;3827;49.928;8.548;2023-07-28T00:20:29;3.17;;;2.83;;
7571;SDS011;3827;49.928;8.548;2023-07-28T00:22:55;3.67;;;2.97;;
7571;SDS011;3827;49.928;8.548;2023-07-28T00:25:22;3.57;;;3.00;;
7571;SDS011;3827;49.928;8.548;2023-07-28T00:27:49;3.23;;;2.93;;
7571;SDS011;3827;49.928;8.548;2023-07-28T00:30:16;3.37;;;3.07;;
7571;SDS011;3827;49.928;8.548;2023-07-28T00:32:44;3.65;;;2.97;;
7571;SDS011;3827;49.928;8.548;2023-07-28T00:35:11;3.40;;;3.10;;
7571;SDS011;3827;49.928;8.548;2023-07-28T00:37:37;3.78;;;2.80;;
7571;SDS011;3827;49.928;8.548;2023-07-28T00:40:04;4.07;;;3.10;;
7571;SDS011;3827;49.928;8.548;2023-07-28T00:42:32;3.45;;;3.10;;
7571;SDS011;3827;49.928;8.548;2023-07-28T00:44:58;3.70;;;3.08;;
7571;SDS011;3827;49.928;8.548;2023-07-28T00:47:25;3.15;;;2.80;;
7571;SDS011;3827;49.928;8.548;2023-07-28T00:49:53;3.40;;;3.10;;
7571;SDS011;3827;49.928;8.548;2023-07-28T00:52:20;3.30;;;3.00;;
7571;SDS011;3827;49.928;8.548;2023-07-28T00:54:47;3.25;;;2.97;;
7571;SDS011;3827;49.928;8.548;2023-07-28T00:57:14;3.75;;;3.25;;
7571;SDS011;3827;49.928;8.548;2023-07-28T00:59:42;3.40;;;2.85;;
7571;SDS011;3827;49.928;8.548;2023-07-28T01:02:10;3.85;;;3.00;;
7571;SDS011;3827;49.928;8.548;2023-07-28T01:04:37;4.43;;;3.53;;
7571;SDS011;3827;49.928;8.548;2023-07-28T01:07:07;3.95;;;3.28;;
7571;SDS011;3827;49.928;8.548;2023-07-28T01:09:37;4.00;;;3.60;;
7571;SDS011;3827;49.928;8.548;2023-07-28T01:12:12;3.90;;;3.50;;
7571;SDS011;3827;49.928;8.548;2023-07-28T01:14:39;3.40;;;3.10;;
7571;SDS011;3827;49.928;8.548;2023-07-28T01:17:06;4.00;;;3.50;;
7571;SDS011;3827;49.928;8.548;2023-07-28T01:19:33;3.42;;;3.13;;
7571;SDS011;3827;49.928;8.548;2023-07-28T01:22:03;5.15;;;3.45;;
7571;SDS011;3827;49.928;8.548;2023-07-28T01:24:46;4.20;;;3.58;;
7571;SDS011;3827;49.928;8.548;2023-07-28T01:27:22;5.28;;;3.50;;
7571;SDS011;3827;49.928;8.548;2023-07-28T01:29:49;4.15;;;3.17;;
7571;SDS011;3827;49.928;8.548;2023-07-28T01:32:16;3.67;;;3.13;;
7571;SDS011;3827;49.928;8.548;2023-07-28T01:34:42;3.53;;;3.22;;
7571;SDS011;3827;49.928;8.548;2023-07-28T01:37:09;4.82;;;3.08;;
7571;SDS011;3827;49.928;8.548;2023-07-28T01:39:36;3.38;;;2.95;;
7571;SDS011;3827;49.928;8.548;2023-07-28T01:42:03;3.40;;;3.10;;
7571;SDS011;3827;49.928;8.548;2023-07-28T01:44:31;3.85;;;3.45;;
7571;SDS011;3827;49.928;8.548;2023-07-28T01:46:57;3.87;;;3.23;;
7571;SDS011;3827;49.928;8.548;2023-07-28T01:49:24;3.53;;;3.17;;
7571;SDS011;3827;49.928;8.548;2023-07-28T01:51:51;3.60;;;3.22;;
7571;SDS011;3827;49.928;8.548;2023-07-28T01:54:18;4.07;;;3.45;;
7571;SDS011;3827;49.928;8.548;2023-07-28T01:56:44;3.85;;;3.15;;
7571;SDS011;3827;49.928;8.548;2023-07-28T01:59:11;3.78;;;3.15;;
7571;SDS011;3827;49.928;8.548;2023-07-28T02:01:39;4.40;;;3.42;;
7571;SDS011;3827;49.928;8.548;2023-07-28T02:04:06;4.00;;;3.30;;
7571;SDS011;3827;49.928;8.548;2023-07-28T02:06:33;4.25;;;3.13;;
7571;SDS011;3827;49.928;8.548;2023-07-28T02:09:00;3.40;;;3.08;;
7571;SDS011;3827;49.928;8.548;2023-07-28T02:11:26;4.05;;;3.47;;
7571;SDS011;3827;49.928;8.548;2023-07-28T02:13:53;3.80;;;3.50;;
7571;SDS011;3827;49.928;8.548;2023-07-28T02:16:20;4.47;;;3.10;;
7571;SDS011;3827;49.928;8.548;2023-07-28T02:18:48;4.10;;;3.40;;
7571;SDS011;3827;49.928;8.548;2023-07-28T02:21:15;4.22;;;3.38;;
7571;SDS011;3827;49.928;8.548;2023-07-28T02:23:41;4.30;;;3.50;;
7571;SDS011;3827;49.928;8.548;2023-07-28T02:26:08;3.50;;;3.20;;
7571;SDS011;3827;49.928;8.548;2023-07-28T02:28:35;3.53;;;3.22;;
7571;SDS011;3827;49.928;8.548;2023-07-28T02:31:02;4.40;;;3.70;;
7571;SDS011;3827;49.928;8.548;2023-07-28T02:33:28;5.40;;;3.53;;
7571;SDS011;3827;49.928;8.548;2023-07-28T02:35:58;3.92;;;3.53;;
7571;SDS011;3827;49.928;8.548;2023-07-28T02:38:24;4.45;;;3.50;;
7571;SDS011;3827;49.928;8.548;2023-07-28T02:40:51;3.35;;;3.05;;
7571;SDS011;3827;49.928;8.548;2023-07-28T02:43:18;3.58;;;3.28;;
7571;SDS011;3827;49.928;8.548;2023-07-28T02:45:47;4.25;;;3.35;;
7571;SDS011;3827;49.928;8.548;2023-07-28T02:48:14;3.88;;;3.13;;
7571;SDS011;3827;49.928;8.548;2023-07-28T02:50:44;4.47;;;3.35;;
7571;SDS011;3827;49.928;8.548;2023-07-28T02:53:13;3.53;;;3.23;;
7571;SDS011;3827;49.928;8.548;2023-07-28T02:55:40;3.65;;;3.00;;
7571;SDS011;3827;49.928;8.548;2023-07-28T02:58:07;4.10;;;3.30;;
7571;SDS011;3827;49.928;8.548;2023-07-28T03:00:36;3.72;;;3.30;;
7571;SDS011;3827;49.928;8.548;2023-07-28T03:03:03;3.33;;;3.03;;
7571;SDS011;3827;49.928;8.548;2023-07-28T03:05:30;3.20;;;2.78;;
7571;SDS011;3827;49.928;8.548;2023-07-28T03:07:57;3.83;;;3.05;;
7571;SDS011;3827;49.928;8.548;2023-07-28T03:10:25;5.03;;;3.38;;
7571;SDS011;3827;49.928;8.548;2023-07-28T03:12:52;4.38;;;3.30;;
7571;SDS011;3827;49.928;8.548;2023-07-28T03:15:19;3.30;;;3.00;;
7571;SDS011;3827;49.928;8.548;2023-07-28T03:17:47;3.58;;;3.05;;
7571;SDS011;3827;49.928;8.548;2023-07-28T03:20:14;3.43;;;3.13;;
7571;SDS011;3827;49.928;8.548;2023-07-28T03:22:41;4.22;;;3.53;;
7571;SDS011;3827;49.928;8.548;2023-07-28T03:25:08;5.05;;;3.13;;
7571;SDS011;3827;49.928;8.548;2023-07-28T03:27:36;3.92;;;3.22;;
7571;SDS011;3827;49.928;8.548;2023-07-28T03:30:03;3.47;;;2.92;;
7571;SDS011;3827;49.928;8.548;2023-07-28T03:32:34;3.50;;;3.13;;
7571;SDS011;3827;49.928;8.548;2023-07-28T03:35:01;3.38;;;3.08;;
7571;SDS011;3827;49.928;8.548;2023-07-28T03:37:30;3.25;;;2.95;;
7571;SDS011;3827;49.928;8.548;2023-07-28T03:39:56;3.17;;;2.88;;
7571;SDS011;3827;49.928;8.548;2023-07-28T03:42:23;5.15;;;3.17;;
7571;SDS011;3827;49.928;8.548;2023-07-28T03:44:52;4.75;;;3.42;;
7571;SDS011;3827;49.928;8.548;2023-07-28T03:47:19;4.40;;;3.20;;
7571;SDS011;3827;49.928;8.548;2023-07-28T03:49:45;4.32;;;3.55;;
7571;SDS011;3827;49.928;8.548;2023-07-28T03:52:12;4.37;;;3.03;;
7571;SDS011;3827;49.928;8.548;2023-07-28T03:54:39;4.87;;;3.33;;
7571;SDS011;3827;49.928;8.548;2023-07-28T03:57:06;3.80;;;3.40;;
7571;SDS011;3827;49.928;8.548;2023-07-28T03:59:34;3.63;;;3.28;;
7571;SDS011;3827;49.928;8.548;2023-07-28T04:02:02;3.72;;;3.03;;
7571;SDS011;3827;49.928;8.548;2023-07-28T04:04:29;3.70;;;3.40;;
7571;SDS011;3827;49.928;8.548;2023-07-28T04:06:56;3.58;;;3.28;;
7571;SDS011;3827;49.928;8.548;2023-07-28T04:09:23;3.33;;;3.03;;
7571;SDS011;3827;49.928;8.548;2023-07-28T04:11:50;4.35;;;2.92;;
7571;SDS011;3827;49.928;8.548;2023-07-28T04:14:16;3.92;;;3.08;;
7571;SDS011;3827;49.928;8.548;2023-07-28T04:16:43;3.30;;;2.90;;
7571;SDS011;3827;49.928;8.548;2023-07-28T04:19:11;3.30;;;3.00;;
7571;SDS011;3827;49.928;8.548;2023-07-28T04:21:38;3.13;;;2.80;;
7571;SDS011;3827;49.928;8.548;2023-07-28T04:24:05;3.10;;;2.77;;
7571;SDS011;3827;49.928;8.548;2023-07-28T04:26:32;3.80;;;3.10;;
7571;SDS011;3827;49.928;8.548;2023-07-28T04:28:59;3.53;;;3.20;;
7571;SDS011;3827;49.928;8.548;2023-07-28T04:31:26;3.33;;;3.03;;
7571;SDS011;3827;49.928;8.548;2023-07-28T04:33:53;3.60;;;3.22;;
7571;SDS011;3827;49.928;8.548;2023-07-28T04:36:21;3.60;;;3.30;;
7571;SDS011;3827;49.928;8.548;2023-07-28T04:38:48;3.60;;;3.00;;
7571;SDS011;3827;49.928;8.548;2023-07-28T04:41:14;2.65;;;2.45;;
7571;SDS011;3827;49.928;8.548;2023-07-28T04:43:41;4.22;;;3.00;;
7571;SDS011;3827;49.928;8.548;2023-07-28T04:46:08;3.88;;;2.80;;
7571;SDS011;3827;49.928;8.548;2023-07-28T04:48:34;2.85;;;2.55;;
7571;SDS011;3827;49.928;8.548;2023-07-28T04:51:01;3.95;;;2.75;;
7571;SDS011;3827;49.928;8.548;2023-07-28T04:53:29;3.30;;;3.00;;
7571;SDS011;3827;49.928;8.548;2023-07-28T04:55:56;3.60;;;3.00;;
7571;SDS011;3827;49.928;8.548;2023-07-28T04:58:23;3.22;;;2.63;;
7571;SDS011;3827;49.928;8.548;2023-07-28T05:00:49;3.00;;;2.70;;
7571;SDS011;3827;49.928;8.548;2023-07-28T05:03:16;3.13;;;2.83;;
7571;SDS011;3827;49.928;8.548;2023-07-28T05:05:43;2.87;;;2.67;;
7571;SDS011;3827;49.928;8.548;2023-07-28T05:08:10;3.33;;;2.60;;
7571;SDS011;3827;49.928;8.548;2023-07-28T05:10:40;3.22;;;2.40;;
7571;SDS011;3827;49.928;8.548;2023-07-28T05:13:07;3.40;;;2.58;;
7571;SDS011;3827;49.928;8.548;2023-07-28T05:15:34;2.95;;;2.65;;
7571;SDS011;3827;49.928;8.548;2023-07-28T05:18:00;2.75;;;2.55;;
7571;SDS011;3827;49.928;8.548;2023-07-28T05:20:27;3.80;;;2.65;;
7571;SDS011;3827;49.928;8.548;2023-07-28T05:22:54;3.90;;;2.97;;
7571;SDS011;3827;49.928;8.548;2023-07-28T05:25:21;2.67;;;2.40;;
7571;SDS011;3827;49.928;8.548;2023-07-28T05:27:49;3.05;;;2.75;;
7571;SDS011;3827;49.928;8.548;2023-07-28T05:30:16;3.30;;;3.00;;
7571;SDS011;3827;49.928;8.548;2023-07-28T05:32:43;2.97;;;2.75;;
7571;SDS011;3827;49.928;8.548;2023-07-28T05:35:11;2.80;;;2.55;;
7571;SDS011;3827;49.928;8.548;2023-07-28T05:37:38;2.50;;;2.23;;
7571;SDS011;3827;49.928;8.548;2023-07-28T05:40:05;3.27;;;2.00;;
7571;SDS011;3827;49.928;8.548;2023-07-28T05:42:32;2.17;;;2.00;;
7571;SDS011;3827;49.928;8.548;2023-07-28T05:45:00;2.20;;;2.10;;
7571;SDS011;3827;49.928;8.548;2023-07-28T05:47:28;2.00;;;1.83;;
7571;SDS011;3827;49.928;8.548;2023-07-28T05:49:55;2.42;;;2.03;;
7571;SDS011;3827;49.928;8.548;2023-07-28T05:52:22;2.58;;;2.30;;
7571;SDS011;3827;49.928;8.548;2023-07-28T05:54:48;2.57;;;2.33;;
7571;SDS011;3827;49.928;8.548;2023-07-28T05:57:15;2.57;;;2.37;;
7571;SDS011;3827;49.928;8.548;2023-07-28T05:59:42;2.72;;;2.17;;
7571;SDS011;3827;49.928;8.548;2023-07-28T06:02:10;2.30;;;2.10;;
7571;SDS011;3827;49.928;8.548;2023-07-28T06:04:37;2.77;;;2.50;;
7571;SDS011;3827;49.928;8.548;2023-07-28T06:07:03;3.25;;;2.35;;
7571;SDS011;3827;49.928;8.548;2023-07-28T06:09:31;2.55;;;2.35;;
7571;SDS011;3827;49.928;8.548;2023-07-28T06:11:58;5.13;;;4.53;;
7571;SDS011;3827;49.928;8.548;2023-07-28T06:14:24;4.93;;;4.43;;
7571;SDS011;3827;49.928;8.548;2023-07-28T06:16:51;3.67;;;3.38;;
7571;SDS011;3827;49.928;8.548;2023-07-28T06:19:19;2.38;;;2.20;;
7571;SDS011;3827;49.928;8.548;2023-07-28T06:21:49;2.30;;;1.90;;
7571;SDS011;3827;49.928;8.548;2023-07-28T06:24:15;2.27;;;1.70;;
7571;SDS011;3827;49.928;8.548;2023-07-28T06:26:42;1.65;;;1.55;;
7571;SDS011;3827;49.928;8.548;2023-07-28T06:29:09;2.55;;;1.85;;
7571;SDS011;3827;49.928;8.548;2023-07-28T06:31:36;2.25;;;1.63;;
7571;SDS011;3827;49.928;8.548;2023-07-28T06:34:02;1.83;;;1.70;;
7571;SDS011;3827;49.928;8.548;2023-07-28T06:36:30;1.98;;;1.63;;
7571;SDS011;3827;49.928;8.548;2023-07-28T06:38:57;1.70;;;1.52;;
7571;SDS011;3827;49.928;8.548;2023-07-28T06:41:24;1.95;;;1.60;;
7571;SDS011;3827;49.928;8.548;2023-07-28T06:43:51;1.75;;;1.65;;
7571;SDS011;3827;49.928;8.548;2023-07-28T06:46:17;2.42;;;1.75;;
7571;SDS011;3827;49.928;8.548;2023-07-28T06:48:44;1.60;;;1.50;;
7571;SDS011;3827;49.928;8.548;2023-07-28T06:51:11;1.50;;;1.40;;
7571;SDS011;3827;49.928;8.548;2023-07-28T06:53:39;2.50;;;1.50;;
7571;SDS011;3827;49.928;8.548;2023-07-28T06:56:05;1.60;;;1.50;;
7571;SDS011;3827;49.928;8.548;2023-07-28T06:58:32;1.73;;;1.63;;
7571;SDS011;3827;49.928;8.548;2023-07-28T07:00:59;1.88;;;1.45;;
7571;SDS011;3827;49.928;8.548;2023-07-28T07:03:25;1.83;;;1.50;;
7571;SDS011;3827;49.928;8.548;2023-07-28T07:05:52;1.40;;;1.30;;
7571;SDS011;3827;49.928;8.548;2023-07-28T07:08:19;2.50;;;1.50;;
7571;SDS011;3827;49.928;8.548;2023-07-28T07:10:51;1.50;;;1.30;;
7571;SDS011;3827;49.928;8.548;2023-07-28T07:13:18;1.27;;;0.90;;
7571;SDS011;3827;49.928;8.548;2023-07-28T07:15:45;1.58;;;0.98;;
7571;SDS011;3827;49.928;8.548;2023-07-28T07:18:12;1.63;;;0.70;;
7571;SDS011;3827;49.928;8.548;2023-07-28T07:20:39;0.82;;;0.82;;
7571;SDS011;3827;49.928;8.548;2023-07-28T07:23:06;2.70;;;1.00;;
7571;SDS011;3827;49.928;8.548;2023-07-28T07:25:33;2.97;;;0.87;;
7571;SDS011;3827;49.928;8.548;2023-07-28T07:28:01;2.27;;;1.10;;
7571;SDS011;3827;49.928;8.548;2023-07-28T07:30:28;2.05;;;0.80;;
7571;SDS011;3827;49.928;8.548;2023-07-28T07:32:57;1.95;;;1.00;;
7571;SDS011;3827;49.928;8.548;2023-07-28T07:35:24;1.60;;;0.95;;
7571;SDS011;3827;49.928;8.548;2023-07-28T07:37:51;1.33;;;0.73;;
7571;SDS011;3827;49.928;8.548;2023-07-28T07:40:18;2.05;;;0.65;;
7571;SDS011;3827;49.928;8.548;2023-07-28T07:42:46;0.85;;;0.77;;
7571;SDS011;3827;49.928;8.548;2023-07-28T07:45:15;0.60;;;0.50;;
7571;SDS011;3827;49.928;8.548;2023-07-28T07:47:42;0.80;;;0.50;;
7571;SDS011;3827;49.928;8.548;2023-07-28T07:50:10;0.50;;;0.50;;
7571;SDS011;3827;49.928;8.548;2023-07-28T07:52:37;0.50;;;0.45;;
7571;SDS011;3827;49.928;8.548;2023-07-28T07:55:05;0.50;;;0.50;;
7571;SDS011;3827;49.928;8.548;2023-07-28T07:57:32;0.90;;;0.60;;
7571;SDS011;3827;49.928;8.548;2023-07-28T07:59:59;1.08;;;0.52;;
7571;SDS011;3827;49.928;8.548;2023-07-28T08:02:27;0.47;;;0.47;;
7571;SDS011;3827;49.928;8.548;2023-07-28T08:04:54;0.40;;;0.40;;
7571;SDS011;3827;49.928;8.548;2023-07-28T08:07:20;0.50;;;0.50;;
7571;SDS011;3827;49.928;8.548;2023-07-28T08:09:48;0.75;;;0.43;;
7571;SDS011;3827;49.928;8.548;2023-07-28T08:12:15;0.50;;;0.50;;
7571;SDS011;3827;49.928;8.548;2023-07-28T08:14:42;0.50;;;0.50;;
7571;SDS011;3827;49.928;8.548;2023-07-28T08:17:11;0.50;;;0.50;;
7571;SDS011;3827;49.928;8.548;2023-07-28T08:19:39;0.50;;;0.50;;
7571;SDS011;3827;49.928;8.548;2023-07-28T08:22:06;0.80;;;0.55;;
7571;SDS011;3827;49.928;8.548;2023-07-28T08:24:34;0.47;;;0.47;;
7571;SDS011;3827;49.928;8.548;2023-07-28T08:27:01;0.40;;;0.40;;
7571;SDS011;3827;49.928;8.548;2023-07-28T08:29:27;0.40;;;0.40;;
7571;SDS011;3827;49.928;8.548;2023-07-28T08:31:54;0.50;;;0.50;;
7571;SDS011;3827;49.928;8.548;2023-07-28T08:34:21;1.10;;;0.50;;
7571;SDS011;3827;49.928;8.548;2023-07-28T08:36:49;0.30;;;0.30;;
7571;SDS011;3827;49.928;8.548;2023-07-28T08:39:17;1.00;;;0.40;;
7571;SDS011;3827;49.928;8.548;2023-07-28T08:41:45;2.10;;;0.52;;
7571;SDS011;3827;49.928;8.548;2023-07-28T08:44:11;0.50;;;0.50;;
7571;SDS011;3827;49.928;8.548;2023-07-28T08:46:38;0.60;;;0.60;;
7571;SDS011;3827;49.928;8.548;2023-07-28T08:49:05;0.40;;;0.40;;
7571;SDS011;3827;49.928;8.548;2023-07-28T08:51:32;0.40;;;0.40;;
7571;SDS011;3827;49.928;8.548;2023-07-28T08:54:00;1.33;;;0.47;;
7571;SDS011;3827;49.928;8.548;2023-07-28T08:56:27;0.40;;;0.40;;
7571;SDS011;3827;49.928;8.548;2023-07-28T08:58:57;0.82;;;0.50;;
7571;SDS011;3827;49.928;8.548;2023-07-28T09:01:24;0.50;;;0.50;;
7571;SDS011;3827;49.928;8.548;2023-07-28T09:03:51;0.95;;;0.50;;
7571;SDS011;3827;49.928;8.548;2023-07-28T09:06:19;0.77;;;0.60;;
7571;SDS011;3827;49.928;8.548;2023-07-28T09:08:56;0.38;;;0.38;;
7571;SDS011;3827;49.928;8.548;2023-07-28T09:11:24;1.30;;;0.50;;
7571;SDS011;3827;49.928;8.548;2023-07-28T09:13:53;0.40;;;0.40;;
7571;SDS011;3827;49.928;8.548;2023-07-28T09:16:21;0.40;;;0.40;;
7571;SDS011;3827;49.928;8.548;2023-07-28T09:18:49;0.50;;;0.43;;
7571;SDS011;3827;49.928;8.548;2023-07-28T09:21:17;0.50;;;0.50;;
7571;SDS011;3827;49.928;8.548;2023-07-28T09:23:45;0.43;;;0.43;;
7571;SDS011;3827;49.928;8.548;2023-07-28T09:26:13;0.40;;;0.40;;
7571;SDS011;3827;49.928;8.548;2023-07-28T09:28:42;0.40;;;0.40;;
7571;SDS011;3827;49.928;8.548;2023-07-28T09:31:09;0.75;;;0.50;;
7571;SDS011;3827;49.928;8.548;2023-07-28T09:33:36;0.40;;;0.40;;
7571;SDS011;3827;49.928;8.548;2023-07-28T09:36:08;0.80;;;0.50;;
7571;SDS011;3827;49.928;8.548;2023-07-28T09:38:36;1.95;;;0.52;;
7571;SDS011;3827;49.928;8.548;2023-07-28T09:41:05;0.40;;;0.40;;
7571;SDS011;3827;49.928;8.548;2023-07-28T09:43:33;1.67;;;0.70;;
7571;SDS011;3827;49.928;8.548;2023-07-28T09:46:02;0.55;;;0.50;;
7571;SDS011;3827;49.928;8.548;2023-07-28T09:48:30;0.85;;;0.60;;
7571;SDS011;3827;49.928;8.548;2023-07-28T09:50:59;0.50;;;0.50;;
7571;SDS011;3827;49.928;8.548;2023-07-28T09:53:29;0.60;;;0.60;;
7571;SDS011;3827;49.928;8.548;2023-07-28T09:55:56;0.40;;;0.40;;
7571;SDS011;3827;49.928;8.548;2023-07-28T09:58:24;0.40;;;0.40;;
7571;SDS011;3827;49.928;8.548;2023-07-28T10:00:52;0.40;;;0.40;;
7571;SDS011;3827;49.928;8.548;2023-07-28T10:03:21;0.50;;;0.50;;
7571;SDS011;3827;49.928;8.548;2023-07-28T10:05:48;0.40;;;0.40;;
7571;SDS011;3827;49.928;8.548;2023-07-28T10:08:16;0.50;;;0.50;;
7571;SDS011;3827;49.928;8.548;2023-07-28T10:10:43;0.50;;;0.50;;
7571;SDS011;3827;49.928;8.548;2023-07-28T10:13:18;0.80;;;0.57;;
7571;SDS011;3827;49.928;8.548;2023-07-28T10:15:46;0.50;;;0.50;;
7571;SDS011;3827;49.928;8.548;2023-07-28T10:18:13;0.43;;;0.43;;
7571;SDS011;3827;49.928;8.548;2023-07-28T10:20:43;0.50;;;0.50;;
7571;SDS011;3827;49.928;8.548;2023-07-28T10:23:14;0.50;;;0.50;;
7571;SDS011;3827;49.928;8.548;2023-07-28T10:25:43;0.60;;;0.60;;
7571;SDS011;3827;49.928;8.548;2023-07-28T10:28:25;0.50;;;0.50;;
7571;SDS011;3827;49.928;8.548;2023-07-28T10:30:53;0.50;;;0.50;;
7571;SDS011;3827;49.928;8.548;2023-07-28T10:33:28;0.60;;;0.60;;
7571;SDS011;3827;49.928;8.548;2023-07-28T10:35:57;0.50;;;0.50;;
7571;SDS011;3827;49.928;8.548;2023-07-28T10:38:27;0.60;;;0.60;;
7571;SDS011;3827;49.928;8.548;2023-07-28T10:41:04;0.70;;;0.70;;
7571;SDS011;3827;49.928;8.548;2023-07-28T10:43:32;0.60;;;0.60;;
7571;SDS011;3827;49.928;8.548;2023-07-28T10:45:59;0.68;;;0.68;;
7571;SDS011;3827;49.928;8.548;2023-07-28T10:48:26;0.80;;;0.80;;
7571;SDS011;3827;49.928;8.548;2023-07-28T10:50:53;0.70;;;0.70;;
7571;SDS011;3827;49.928;8.548;2023-07-28T10:53:21;1.23;;;0.90;;
7571;SDS011;3827;49.928;8.548;2023-07-28T10:55:48;1.40;;;1.30;;
7571;SDS011;3827;49.928;8.548;2023-07-28T10:58:15;1.50;;;1.40;;
7571;SDS011;3827;49.928;8.548;2023-07-28T11:00:42;1.90;;;1.50;;
7571;SDS011;3827;49.928;8.548;2023-07-28T11:03:09;1.63;;;1.53;;
7571;SDS011;3827;49.928;8.548;2023-07-28T11:05:36;1.80;;;1.70;;
7571;SDS011;3827;49.928;8.548;2023-07-28T11:08:05;1.60;;;1.50;;
7571;SDS011;3827;49.928;8.548;2023-07-28T11:10:34;1.60;;;1.50;;
7571;SDS011;3827;49.928;8.548;2023-07-28T11:13:02;1.85;;;1.75;;
7571;SDS011;3827;49.928;8.548;2023-07-28T11:15:32;1.90;;;1.80;;
7571;SDS011;3827;49.928;8.548;2023-07-28T11:17:59;2.77;;;1.57;;
7571;SDS011;3827;49.928;8.548;2023-07-28T11:20:26;1.60;;;1.50;;
7571;SDS011;3827;49.928;8.548;2023-07-28T11:22:54;2.25;;;1.58;;
7571;SDS011;3827;49.928;8.548;2023-07-28T11:25:23;1.85;;;1.75;;
7571;SDS011;3827;49.928;8.548;2023-07-28T11:27:52;1.75;;;1.65;;
7571;SDS011;3827;49.928;8.548;2023-07-28T11:30:20;1.85;;;1.75;;
7571;SDS011;3827;49.928;8.548;2023-07-28T11:32:48;1.60;;;1.50;;
7571;SDS011;3827;49.928;8.548;2023-07-28T11:35:16;1.40;;;1.30;;
7571;SDS011;3827;49.928;8.548;2023-07-28T11:37:45;1.15;;;1.10;;
7571;SDS011;3827;49.928;8.548;2023-07-28T11:40:14;1.13;;;1.13;;
7571;SDS011;3827;49.928;8.548;2023-07-28T11:42:44;1.40;;;1.30;;
7571;SDS011;3827;49.928;8.548;2023-07-28T11:45:15;1.60;;;1.50;;
7571;SDS011;3827;49.928;8.548;2023-07-28T11:47:50;1.40;;;1.30;;
7571;SDS011;3827;49.928;8.548;2023-07-28T11:50:24;1.23;;;1.13;;
7571;SDS011;3827;49.928;8.548;2023-07-28T11:52:51;1.17;;;1.10;;
7571;SDS011;3827;49.928;8.548;2023-07-28T11:55:18;1.53;;;1.00;;
7571;SDS011;3827;49.928;8.548;2023-07-28T11:57:47;1.33;;;1.17;;
7571;SDS011;3827;49.928;8.548;2023-07-28T12:00:16;1.10;;;1.10;;
7571;SDS011;3827;49.928;8.548;2023-07-28T12:02:43;1.30;;;1.20;;
7571;SDS011;3827;49.928;8.548;2023-07-28T12:05:12;1.30;;;1.20;;
7571;SDS011;3827;49.928;8.548;2023-07-28T12:07:39;1.40;;;1.30;;
7571;SDS011;3827;49.928;8.548;2023-07-28T12:10:06;1.40;;;1.20;;
7571;SDS011;3827;49.928;8.548;2023-07-28T12:12:39;1.20;;;1.10;;
7571;SDS011;3827;49.928;8.548;2023-07-28T12:15:19;1.02;;;1.02;;
7571;SDS011;3827;49.928;8.548;2023-07-28T12:18:03;1.10;;;1.10;;
7571;SDS011;3827;49.928;8.548;2023-07-28T12:20:33;1.10;;;1.10;;
7571;SDS011;3827;49.928;8.548;2023-07-28T12:23:00;1.30;;;1.20;;
7571;SDS011;3827;49.928;8.548;2023-07-28T12:25:27;1.50;;;1.17;;
7571;SDS011;3827;49.928;8.548;2023-07-28T12:27:55;1.00;;;1.00;;
7571;SDS011;3827;49.928;8.548;2023-07-28T12:30:23;1.00;;;1.00;;
7571;SDS011;3827;49.928;8.548;2023-07-28T12:32:50;1.00;;;1.00;;
7571;SDS011;3827;49.928;8.548;2023-07-28T12:35:17;1.40;;;1.08;;
7571;SDS011;3827;49.928;8.548;2023-07-28T12:37:44;1.90;;;1.10;;
7571;SDS011;3827;49.928;8.548;2023-07-28T12:40:11;1.10;;;1.10;;
7571;SDS011;3827;49.928;8.548;2023-07-28T12:42:38;1.80;;;1.03;;
7571;SDS011;3827;49.928;8.548;2023-07-28T12:45:06;1.10;;;1.05;;
7571;SDS011;3827;49.928;8.548;2023-07-28T12:47:35;1.15;;;1.05;;
7571;SDS011;3827;49.928;8.548;2023-07-28T12:50:01;1.05;;;0.98;;
7571;SDS011;3827;49.928;8.548;2023-07-28T12:52:29;1.00;;;1.00;;
7571;SDS011;3827;49.928;8.548;2023-07-28T12:54:56;1.15;;;1.10;;
7571;SDS011;3827;49.928;8.548;2023-07-28T12:57:23;1.13;;;1.00;;
7571;SDS011;3827;49.928;8.548;2023-07-28T12:59:50;0.93;;;0.93;;
7571;SDS011;3827;49.928;8.548;2023-07-28T13:02:17;0.93;;;0.93;;
7571;SDS011;3827;49.928;8.548;2023-07-28T13:04:45;0.77;;;0.77;;
7571;SDS011;3827;49.928;8.548;2023-07-28T13:07:12;0.90;;;0.90;;
7571;SDS011;3827;49.928;8.548;2023-07-28T13:09:39;0.98;;;0.98;;
7571;SDS011;3827;49.928;8.548;2023-07-28T13:12:07;1.38;;;1.15;;
7571;SDS011;3827;49.928;8.548;2023-07-28T13:14:34;1.00;;;1.00;;
7571;SDS011;3827;49.928;8.548;2023-07-28T13:17:01;1.20;;;1.10;;
7571;SDS011;3827;49.928;8.548;2023-07-28T13:19:28;0.90;;;0.90;;
7571;SDS011;3827;49.928;8.548;2023-07-28T13:21:56;0.87;;;0.87;;
7571;SDS011;3827;49.928;8.548;2023-07-28T13:24:22;0.80;;;0.80;;
7571;SDS011;3827;49.928;8.548;2023-07-28T13:26:49;0.88;;;0.70;;
7571;SDS011;3827;49.928;8.548;2023-07-28T13:29:16;0.70;;;0.70;;
7571;SDS011;3827;49.928;8.548;2023-07-28T13:31:43;0.70;;;0.70;;
7571;SDS011;3827;49.928;8.548;2023-07-28T13:34:10;2.80;;;0.90;;
7571;SDS011;3827;49.928;8.548;2023-07-28T13:36:36;0.95;;;0.95;;
7571;SDS011;3827;49.928;8.548;2023-07-28T13:39:04;1.10;;;1.00;;
7571;SDS011;3827;49.928;8.548;2023-07-28T13:41:32;1.00;;;1.00;;
7571;SDS011;3827;49.928;8.548;2023-07-28T13:43:58;1.00;;;1.00;;
7571;SDS011;3827;49.928;8.548;2023-07-28T13:46:25;1.33;;;0.80;;
7571;SDS011;3827;49.928;8.548;2023-07-28T13:48:52;1.15;;;1.00;;
7571;SDS011;3827;49.928;8.548;2023-07-28T13:51:19;2.55;;;0.95;;
7571;SDS011;3827;49.928;8.548;2023-07-28T13:53:46;1.85;;;1.00;;
7571;SDS011;3827;49.928;8.548;2023-07-28T13:56:14;1.10;;;1.10;;
7571;SDS011;3827;49.928;8.548;2023-07-28T13:58:41;0.90;;;0.90;;
7571;SDS011;3827;49.928;8.548;2023-07-28T14:01:08;2.17;;;0.90;;
7571;SDS011;3827;49.928;8.548;2023-07-28T14:03:35;2.33;;;1.00;;
7571;SDS011;3827;49.928;8.548;2023-07-28T14:06:02;1.00;;;1.00;;
7571;SDS011;3827;49.928;8.548;2023-07-28T14:08:29;1.10;;;1.10;;
7571;SDS011;3827;49.928;8.548;2023-07-28T14:10:56;1.00;;;0.90;;
7571;SDS011;3827;49.928;8.548;2023-07-28T14:13:24;1.50;;;0.80;;
7571;SDS011;3827;49.928;8.548;2023-07-28T14:15:51;1.10;;;0.90;;
7571;SDS011;3827;49.928;8.548;2023-07-28T14:18:18;0.88;;;0.88;;
7571;SDS011;3827;49.928;8.548;2023-07-28T14:20:45;2.10;;;0.82;;
7571;SDS011;3827;49.928;8.548;2023-07-28T14:23:22;0.80;;;0.80;;
7571;SDS011;3827;49.928;8.548;2023-07-28T14:25:50;1.05;;;1.05;;
7571;SDS011;3827;49.928;8.548;2023-07-28T14:28:17;1.40;;;1.00;;
7571;SDS011;3827;49.928;8.548;2023-07-28T14:30:45;1.25;;;1.00;;
7571;SDS011;3827;49.928;8.548;2023-07-28T14:33:12;1.10;;;0.80;;
7571;SDS011;3827;49.928;8.548;2023-07-28T14:35:40;0.93;;;0.90;;
7571;SDS011;3827;49.928;8.548;2023-07-28T14:38:07;1.48;;;0.90;;
7571;SDS011;3827;49.928;8.548;2023-07-28T14:40:34;1.25;;;1.00;;
7571;SDS011;3827;49.928;8.548;2023-07-28T14:43:01;1.30;;;1.00;;
7571;SDS011;3827;49.928;8.548;2023-07-28T14:45:28;0.80;;;0.80;;
7571;SDS011;3827;49.928;8.548;2023-07-28T14:47:56;0.80;;;0.80;;
7571;SDS011;3827;49.928;8.548;2023-07-28T14:50:23;0.75;;;0.75;;
7571;SDS011;3827;49.928;8.548;2023-07-28T14:52:49;0.80;;;0.80;;
7571;SDS011;3827;49.928;8.548;2023-07-28T14:55:16;0.70;;;0.70;;
7571;SDS011;3827;49.928;8.548;2023-07-28T14:57:43;0.70;;;0.70;;
7571;SDS011;3827;49.928;8.548;2023-07-28T15:00:10;0.70;;;0.70;;
7571;SDS011;3827;49.928;8.548;2023-07-28T15:02:38;0.77;;;0.77;;
7571;SDS011;3827;49.928;8.548;2023-07-28T15:05:06;0.80;;;0.80;;
7571;SDS011;3827;49.928;8.548;2023-07-28T15:07:33;1.70;;;0.90;;
7571;SDS011;3827;49.928;8.548;2023-07-28T15:10:01;1.00;;;1.00;;
7571;SDS011;3827;49.928;8.548;2023-07-28T15:12:28;1.70;;;1.00;;
7571;SDS011;3827;49.928;8.548;2023-07-28T15:14:55;1.20;;;1.10;;
7571;SDS011;3827;49.928;8.548;2023-07-28T15:17:22;1.20;;;1.10;;